Time;durP1;ratioP1;P1;durP2;ratioP2;P2;SDS_P1;SDS_P2;PMS_P1;PMS_P2;Temp;Humidity;BMP_temperature;BMP_pressure;BME280_temperature;BME280_humidity;BME280_pressure;Samples;Min_cycle;Max_cycle;Signal;HPM_P1;HPM_P2
2022/06/29 00:00:12;;;;;;;22.27;16.83;;;15.80;99.90;;;;;;5056149;28;20095;-81
2022/06/29 00:02:38;;;;;;;27.23;17.42;;;15.70;99.90;;;;;;5056155;28;20053;-80
2022/06/29 00:05:05;;;;;;;25.77;17.52;;;15.70;99.90;;;;;;5056278;28;20053;-81
2022/06/29 00:07:31;;;;;;;31.17;17.10;;;15.70;99.90;;;;;;5056290;28;20037;-81
2022/06/29 00:09:57;;;;;;;25.75;17.45;;;15.70;99.90;;;;;;5055671;28;20068;-81
2022/06/29 00:12:23;;;;;;;29.90;18.50;;;15.70;99.90;;;;;;5054526;28;20045;-81
2022/06/29 00:14:49;;;;;;;24.02;17.48;;;15.70;99.90;;;;;;5055904;28;20080;-81
2022/06/29 00:17:14;;;;;;;29.08;18.65;;;15.70;99.90;;;;;;5055079;28;20225;-81
2022/06/29 00:19:40;;;;;;;27.95;18.33;;;15.60;99.90;;;;;;5071156;28;20142;-81
2022/06/29 00:22:08;;;;;;;25.23;18.10;;;15.60;99.90;;;;;;5055694;28;20507;-81
2022/06/29 00:24:35;;;;;;;26.55;19.48;;;15.60;99.90;;;;;;5055748;28;20044;-81
2022/06/29 00:27:02;;;;;;;26.63;18.52;;;15.60;99.90;;;;;;5055378;28;20076;-80
2022/06/29 00:29:28;;;;;;;29.95;19.83;;;15.50;99.90;;;;;;5056044;28;20510;-81
2022/06/29 00:31:54;;;;;;;30.20;19.23;;;15.60;99.90;;;;;;5055520;28;20041;-81
2022/06/29 00:34:20;;;;;;;24.73;17.98;;;15.60;99.90;;;;;;5055498;28;20049;-81
2022/06/29 00:36:46;;;;;;;30.00;19.52;;;15.60;99.90;;;;;;5055551;28;20037;-81
2022/06/29 00:39:11;;;;;;;29.40;20.80;;;15.60;99.90;;;;;;5055494;28;20120;-81
2022/06/29 00:41:41;;;;;;;33.63;21.23;;;15.60;99.90;;;;;;5054131;28;20040;-81
2022/06/29 00:44:09;;;;;;;28.33;18.83;;;15.60;99.90;;;;;;5055342;28;20049;-81
2022/06/29 00:46:36;;;;;;;29.23;20.58;;;15.50;99.90;;;;;;5055305;28;20040;-81
2022/06/29 00:49:02;;;;;;;29.83;20.58;;;15.50;99.90;;;;;;5055254;28;20110;-81
2022/06/29 00:51:31;;;;;;;30.35;20.92;;;15.50;99.90;;;;;;5055034;28;20408;-81
2022/06/29 00:53:59;;;;;;;30.50;20.83;;;15.60;99.90;;;;;;5055049;28;20396;-81
2022/06/29 00:56:25;;;;;;;35.22;22.38;;;15.60;99.90;;;;;;5070374;28;20044;-81
2022/06/29 00:58:55;;;;;;;30.17;20.13;;;15.60;99.90;;;;;;5055110;28;20033;-81
2022/06/29 01:01:21;;;;;;;32.42;19.27;;;15.60;99.90;;;;;;5054857;28;20442;-81
2022/06/29 01:03:46;;;;;;;27.67;19.15;;;15.60;99.90;;;;;;5055069;28;20052;-81
2022/06/29 01:06:12;;;;;;;33.58;20.63;;;15.60;99.90;;;;;;5054938;28;20468;-81
2022/06/29 01:08:38;;;;;;;36.10;22.17;;;15.60;99.90;;;;;;5053349;28;20094;-80
2022/06/29 01:11:03;;;;;;;30.77;20.77;;;15.60;99.90;;;;;;5054857;28;20051;-81
2022/06/29 01:13:29;;;;;;;32.45;21.23;;;15.60;99.90;;;;;;5054740;28;20399;-81
2022/06/29 01:15:55;;;;;;;27.65;20.42;;;15.60;99.90;;;;;;5054712;28;20040;-81
2022/06/29 01:18:20;;;;;;;26.70;20.80;;;15.60;99.90;;;;;;5054682;28;20039;-81
2022/06/29 01:20:46;;;;;;;29.75;20.55;;;15.50;99.90;;;;;;5054624;28;20036;-81
2022/06/29 01:23:13;;;;;;;32.78;21.90;;;15.50;99.90;;;;;;5054256;28;20492;-81
2022/06/29 01:25:39;;;;;;;30.70;21.33;;;15.50;99.90;;;;;;5054599;28;20059;-81
2022/06/29 01:28:04;;;;;;;29.90;21.38;;;15.50;99.90;;;;;;5053543;28;20462;-81
2022/06/29 01:30:30;;;;;;;38.08;23.98;;;15.50;99.90;;;;;;5054558;28;20041;-81
2022/06/29 01:32:56;;;;;;;30.95;22.35;;;15.50;99.90;;;;;;5053163;28;20049;-81
2022/06/29 01:35:23;;;;;;;32.67;21.55;;;15.40;99.90;;;;;;5053079;28;20091;-81
2022/06/29 01:37:49;;;;;;;30.15;21.55;;;15.40;99.90;;;;;;5054284;28;20053;-81
2022/06/29 01:40:15;;;;;;;31.33;21.98;;;15.40;99.90;;;;;;5054246;28;20041;-81
2022/06/29 01:42:41;;;;;;;33.58;23.17;;;15.30;99.90;;;;;;5053987;28;20521;-81
2022/06/29 01:45:08;;;;;;;29.48;20.85;;;15.30;99.90;;;;;;5054452;28;20076;-81
2022/06/29 01:47:34;;;;;;;31.65;22.98;;;15.30;99.90;;;;;;5053090;28;20403;-81
2022/06/29 01:49:59;;;;;;;35.80;22.83;;;15.30;99.90;;;;;;5052887;28;20492;-81
2022/06/29 01:52:25;;;;;;;30.05;22.25;;;15.20;99.90;;;;;;5053908;28;20045;-81
2022/06/29 01:54:50;;;;;;;36.00;24.08;;;15.20;99.90;;;;;;5054066;28;20040;-81
2022/06/29 01:57:16;;;;;;;29.10;21.75;;;15.20;99.90;;;;;;5052904;28;20053;-81
2022/06/29 01:59:42;;;;;;;30.48;22.05;;;15.10;99.90;;;;;;5052623;28;20419;-81
2022/06/29 02:02:08;;;;;;;29.30;21.05;;;15.10;99.90;;;;;;5053760;28;20037;-82
2022/06/29 02:04:34;;;;;;;30.75;22.35;;;15.20;99.90;;;;;;5053914;28;20051;-81
2022/06/29 02:06:59;;;;;;;35.83;21.98;;;15.10;99.90;;;;;;5053816;28;20049;-81
2022/06/29 02:09:25;;;;;;;36.13;22.90;;;15.10;99.90;;;;;;5054007;28;20052;-81
2022/06/29 02:11:51;;;;;;;32.42;22.10;;;15.10;99.90;;;;;;5053691;28;20075;-81
2022/06/29 02:14:16;;;;;;;35.05;23.02;;;15.10;99.90;;;;;;5053672;28;20041;-81
2022/06/29 02:16:42;;;;;;;32.17;22.90;;;15.10;99.90;;;;;;5053936;28;20041;-81
2022/06/29 02:19:08;;;;;;;32.08;23.00;;;15.00;99.90;;;;;;5053721;28;20558;-82
2022/06/29 02:21:34;;;;;;;31.08;22.83;;;15.00;99.90;;;;;;5052457;28;20053;-81
2022/06/29 02:23:59;;;;;;;33.63;23.02;;;15.00;99.90;;;;;;5053726;28;20067;-82
2022/06/29 02:26:25;;;;;;;35.08;23.00;;;15.00;99.90;;;;;;5053632;28;20051;-81
2022/06/29 02:28:51;;;;;;;31.55;23.67;;;15.00;99.90;;;;;;5053506;28;20044;-81
2022/06/29 02:36:45;;;;;;;28.63;22.23;;;15.00;99.90;;;;;;5053412;28;20399;-81
2022/06/29 02:39:10;;;;;;;34.20;22.98;;;14.90;99.90;;;;;;5053898;28;20049;-81
2022/06/29 02:41:36;;;;;;;34.42;23.58;;;14.90;99.90;;;;;;5057475;28;20052;-81
2022/06/29 02:44:02;;;;;;;31.65;24.20;;;14.90;99.90;;;;;;5057650;28;20506;-81
2022/06/29 02:46:28;;;;;;;32.08;21.60;;;14.90;99.90;;;;;;5057448;28;20037;-81
2022/06/29 02:48:53;;;;;;;32.50;22.70;;;14.80;99.90;;;;;;5056340;28;20060;-81
2022/06/29 02:51:19;;;;;;;31.77;24.08;;;14.90;99.90;;;;;;5057172;28;20403;-81
2022/06/29 02:53:44;;;;;;;33.83;23.25;;;14.80;99.90;;;;;;5057191;28;20048;-81
2022/06/29 02:56:10;;;;;;;27.45;21.52;;;14.80;99.90;;;;;;5056128;28;20057;-82
2022/06/29 02:58:36;;;;;;;29.50;22.08;;;14.90;99.90;;;;;;5072657;28;20040;-81
2022/06/29 03:01:01;;;;;;;30.70;22.13;;;14.90;99.90;;;;;;5056627;28;20503;-81
2022/06/29 03:03:27;;;;;;;30.60;21.35;;;14.90;99.90;;;;;;5056766;28;20049;-82
2022/06/29 03:05:52;;;;;;;31.58;21.60;;;14.90;99.90;;;;;;5056426;28;20045;-81
2022/06/29 03:08:18;;;;;;;32.25;22.27;;;14.90;99.90;;;;;;5054840;28;20048;-81
2022/06/29 03:10:44;;;;;;;29.30;21.33;;;14.90;99.90;;;;;;5054051;28;20059;-81
2022/06/29 03:13:09;;;;;;;30.38;21.88;;;14.90;99.90;;;;;;5056288;28;20111;-81
2022/06/29 03:15:35;;;;;;;29.73;21.02;;;14.90;99.90;;;;;;5056989;28;20037;-81
2022/06/29 03:18:01;;;;;;;30.25;21.50;;;15.00;99.90;;;;;;5056952;28;20391;-81
2022/06/29 03:20:26;;;;;;;31.52;21.55;;;15.00;99.90;;;;;;5055415;28;20095;-81
2022/06/29 03:22:52;;;;;;;30.27;22.05;;;15.10;99.90;;;;;;5056577;28;20071;-81
2022/06/29 03:25:18;;;;;;;30.67;22.15;;;15.00;99.90;;;;;;5056804;28;20051;-82
2022/06/29 03:27:44;;;;;;;30.55;20.92;;;15.00;99.90;;;;;;5056741;28;20099;-81
2022/06/29 03:30:11;;;;;;;28.60;20.67;;;15.00;99.90;;;;;;5056440;28;20049;-82
2022/06/29 03:32:37;;;;;;;38.40;22.20;;;15.00;99.90;;;;;;5056318;28;20476;-81
2022/06/29 03:35:03;;;;;;;27.40;19.75;;;15.00;99.90;;;;;;5056444;28;20051;-81
2022/06/29 03:37:29;;;;;;;29.10;20.92;;;15.10;99.90;;;;;;5056801;28;20044;-82
2022/06/29 03:39:54;;;;;;;35.72;21.30;;;15.10;99.90;;;;;;5056319;28;20040;-81
2022/06/29 03:42:20;;;;;;;27.38;19.05;;;15.10;99.90;;;;;;5056284;28;20033;-82
2022/06/29 03:44:46;;;;;;;28.88;20.45;;;15.10;99.90;;;;;;5056154;28;20246;-81
2022/06/29 03:47:12;;;;;;;30.05;21.02;;;15.10;99.90;;;;;;5056143;28;20064;-82
2022/06/29 03:49:38;;;;;;;29.20;20.40;;;15.20;99.90;;;;;;5055026;28;20041;-81
2022/06/29 03:52:04;;;;;;;26.85;20.30;;;15.20;99.90;;;;;;5054977;28;20446;-81
2022/06/29 03:54:30;;;;;;;26.75;20.25;;;15.20;99.90;;;;;;5056010;28;20135;-82
2022/06/29 03:56:56;;;;;;;24.75;19.27;;;15.20;99.90;;;;;;5056220;28;20125;-81
2022/06/29 03:59:21;;;;;;;27.83;19.75;;;15.20;99.90;;;;;;5055854;28;20047;-81
2022/06/29 04:01:47;;;;;;;25.05;19.65;;;15.30;99.90;;;;;;5056091;28;20045;-81
2022/06/29 04:04:13;;;;;;;26.00;19.48;;;15.30;99.90;;;;;;5055972;28;20041;-81
2022/06/29 04:06:39;;;;;;;24.45;18.90;;;15.30;99.90;;;;;;5055778;28;20323;-81
2022/06/29 04:09:05;;;;;;;28.98;19.17;;;15.30;99.90;;;;;;5055757;28;20087;-81
2022/06/29 04:11:49;;;;;;;27.70;18.90;;;15.40;99.90;;;;;;5055810;28;20076;-81
2022/06/29 04:14:16;;;;;;;23.92;18.20;;;15.40;99.90;;;;;;5056039;28;20095;-81
2022/06/29 04:16:42;;;;;;;23.20;18.38;;;15.40;99.90;;;;;;5055854;28;20043;-81
2022/06/29 04:19:07;;;;;;;23.65;17.63;;;15.50;99.90;;;;;;5054608;28;20131;-81
2022/06/29 04:21:33;;;;;;;24.70;18.45;;;15.60;99.90;;;;;;5055791;28;20128;-81
2022/06/29 04:23:59;;;;;;;22.73;17.52;;;15.60;99.90;;;;;;5054246;28;20084;-81
2022/06/29 04:26:24;;;;;;;27.20;18.52;;;15.70;99.90;;;;;;5055678;28;20061;-81
2022/06/29 04:28:50;;;;;;;22.85;18.13;;;15.70;99.90;;;;;;5055626;28;20040;-81
2022/06/29 04:31:16;;;;;;;24.52;17.73;;;15.80;99.90;;;;;;5053995;28;20049;-81
2022/06/29 04:33:41;;;;;;;25.30;18.40;;;15.80;99.90;;;;;;5055460;28;20086;-81
2022/06/29 04:36:07;;;;;;;25.92;18.75;;;15.80;99.90;;;;;;5055287;28;20048;-81
2022/06/29 04:38:33;;;;;;;22.27;17.92;;;15.80;99.90;;;;;;5055503;28;20055;-81
2022/06/29 04:40:59;;;;;;;20.77;17.80;;;15.80;99.90;;;;;;5055392;28;20056;-81
2022/06/29 04:43:27;;;;;;;26.13;18.30;;;15.80;99.90;;;;;;5055066;28;20045;-81
2022/06/29 04:48:38;;;;;;;27.40;18.30;;;15.90;99.90;;;;;;5055197;28;20385;-81
2022/06/29 04:51:04;;;;;;;24.75;18.95;;;15.90;99.90;;;;;;5053811;28;20048;-81
2022/06/29 04:53:29;;;;;;;26.20;18.42;;;16.10;99.90;;;;;;5055066;28;20106;-81
2022/06/29 04:55:55;;;;;;;24.77;19.42;;;16.20;99.90;;;;;;5055151;28;20033;-81
2022/06/29 04:58:20;;;;;;;21.55;16.73;;;16.20;99.90;;;;;;5054915;28;20056;-81
2022/06/29 05:00:46;;;;;;;23.60;17.60;;;16.30;99.90;;;;;;5053652;28;20134;-81
2022/06/29 05:03:12;;;;;;;25.05;17.88;;;16.30;99.90;;;;;;5054811;28;20033;-81
2022/06/29 05:05:38;;;;;;;20.90;17.00;;;16.30;99.90;;;;;;5054749;28;20098;-81
2022/06/29 05:08:04;;;;;;;22.45;17.40;;;16.40;99.90;;;;;;5054903;28;20068;-81
2022/06/29 05:10:30;;;;;;;24.70;17.10;;;16.50;99.90;;;;;;5054449;28;20464;-81
2022/06/29 05:12:56;;;;;;;19.42;17.33;;;16.70;99.90;;;;;;5054667;28;20101;-80
2022/06/29 05:15:22;;;;;;;22.40;16.48;;;16.90;99.90;;;;;;5054559;28;20132;-81
2022/06/29 05:17:47;;;;;;;23.77;17.23;;;17.00;99.90;;;;;;5054460;28;20094;-81
2022/06/29 05:20:13;;;;;;;22.45;16.73;;;17.20;99.90;;;;;;5053300;28;20044;-81
2022/06/29 05:22:39;;;;;;;21.88;16.15;;;17.20;99.90;;;;;;5054397;28;20048;-81
2022/06/29 05:25:05;;;;;;;22.33;16.10;;;17.20;99.90;;;;;;5055743;28;20041;-81
2022/06/29 05:27:31;;;;;;;20.30;16.02;;;17.20;99.90;;;;;;5054746;28;20041;-81
2022/06/29 05:29:57;;;;;;;21.05;16.75;;;17.20;99.90;;;;;;5054194;28;20450;-81
2022/06/29 05:32:23;;;;;;;23.90;17.42;;;17.20;99.90;;;;;;5052975;28;20053;-81
2022/06/29 05:34:48;;;;;;;18.20;16.23;;;17.20;99.90;;;;;;5054200;28;20043;-81
2022/06/29 05:37:14;;;;;;;21.15;16.35;;;17.30;99.90;;;;;;5054070;28;20048;-81
2022/06/29 05:39:42;;;;;;;21.33;16.35;;;17.50;99.90;;;;;;5054028;28;20083;-81
2022/06/29 05:42:08;;;;;;;21.98;17.35;;;17.70;99.90;;;;;;5054271;28;20080;-82
2022/06/29 05:44:33;;;;;;;20.95;17.20;;;17.80;99.90;;;;;;5054286;28;20087;-82
2022/06/29 05:46:59;;;;;;;21.23;16.73;;;17.70;99.90;;;;;;5052859;28;20048;-82
2022/06/29 05:49:25;;;;;;;20.48;17.50;;;17.70;99.90;;;;;;5054084;28;20037;-82
2022/06/29 05:51:50;;;;;;;24.60;18.10;;;17.60;99.90;;;;;;5053693;28;20037;-81
2022/06/29 05:54:16;;;;;;;19.95;16.77;;;17.50;99.90;;;;;;5052593;28;20041;-81
2022/06/29 05:56:41;;;;;;;19.92;16.85;;;17.50;99.90;;;;;;5052748;28;20041;-82
2022/06/29 05:59:07;;;;;;;20.65;17.13;;;17.50;99.90;;;;;;5052482;28;20433;-82
2022/06/29 06:01:33;;;;;;;26.92;16.88;;;17.50;99.90;;;;;;5053635;28;20051;-82
2022/06/29 06:03:58;;;;;;;23.52;16.67;;;17.50;99.90;;;;;;5053947;28;20044;-82
2022/06/29 06:06:24;;;;;;;19.77;15.80;;;17.50;99.90;;;;;;5052349;28;20472;-82
2022/06/29 06:08:50;;;;;;;20.17;16.00;;;17.60;99.90;;;;;;5053650;28;20132;-81
2022/06/29 06:11:15;;;;;;;17.85;15.10;;;17.80;99.90;;;;;;5052332;28;20518;-82
2022/06/29 06:13:41;;;;;;;21.20;14.27;;;18.00;99.90;;;;;;5053259;28;20110;-81
2022/06/29 06:16:07;;;;;;;18.17;14.18;;;18.30;99.90;;;;;;5053568;28;20052;-81
2022/06/29 06:18:33;;;;;;;18.38;14.20;;;18.40;99.90;;;;;;5052247;28;20067;-82
2022/06/29 06:20:58;;;;;;;16.98;14.52;;;18.60;99.90;;;;;;5053588;28;20053;-82
2022/06/29 06:23:24;;;;;;;18.67;14.32;;;18.70;99.90;;;;;;5053626;28;20045;-81
2022/06/29 06:25:50;;;;;;;21.15;14.20;;;18.60;99.90;;;;;;5053455;28;20048;-81
2022/06/29 06:28:15;;;;;;;27.55;13.93;;;18.70;99.90;;;;;;5052088;28;20098;-81
2022/06/29 06:30:41;;;;;;;18.42;12.55;;;18.70;99.90;;;;;;5053307;28;20055;-81
2022/06/29 06:33:06;;;;;;;14.38;11.80;;;19.00;99.90;;;;;;5052096;28;20056;-81
2022/06/29 06:35:32;;;;;;;15.88;12.35;;;19.20;99.90;;;;;;5052044;28;20041;-81
2022/06/29 06:37:58;;;;;;;14.15;11.85;;;19.40;99.90;;;;;;5053504;28;20095;-81
2022/06/29 06:43:08;;;;;;;15.10;11.45;;;19.90;99.90;;;;;;5052038;28;20136;-81
2022/06/29 06:45:34;;;;;;;18.70;11.45;;;20.10;99.90;;;;;;5052201;28;20136;-82
2022/06/29 06:48:00;;;;;;;14.00;10.73;;;20.30;99.90;;;;;;5051903;28;20041;-81
2022/06/29 06:50:25;;;;;;;15.25;10.35;;;20.50;99.90;;;;;;5053409;28;20052;-82
2022/06/29 06:52:51;;;;;;;12.00;10.32;;;20.50;99.90;;;;;;5053020;28;20482;-82
2022/06/29 06:55:17;;;;;;;16.98;9.57;;;20.70;99.90;;;;;;5051825;28;20540;-82
2022/06/29 06:57:42;;;;;;;12.38;9.88;;;20.90;99.90;;;;;;5053146;28;20037;-81
2022/06/29 07:00:09;;;;;;;13.68;9.15;;;21.00;99.90;;;;;;5053309;28;20044;-82
2022/06/29 07:02:35;;;;;;;18.38;8.50;;;21.10;99.90;;;;;;5053221;28;20120;-82
2022/06/29 07:05:03;;;;;;;10.02;8.40;;;21.20;99.90;;;;;;5053217;28;20080;-82
2022/06/29 07:07:28;;;;;;;12.00;8.45;;;21.30;99.90;;;;;;5053000;28;20404;-81
2022/06/29 07:09:54;;;;;;;11.45;9.07;;;21.50;99.90;;;;;;5052843;28;20053;-81
2022/06/29 07:12:20;;;;;;;11.18;8.20;;;21.60;99.90;;;;;;5051773;28;20049;-82
2022/06/29 07:14:45;;;;;;;11.10;8.48;;;21.60;99.90;;;;;;5057537;28;20147;-80
2022/06/29 07:17:11;;;;;;;17.73;9.00;;;21.80;99.90;;;;;;5057742;28;20076;-80
2022/06/29 07:19:36;;;;;;;10.13;8.00;;;21.90;99.90;;;;;;5052638;28;20044;-80
2022/06/29 07:22:02;;;;;;;13.68;8.55;;;22.10;99.90;;;;;;5051716;28;20041;-81
2022/06/29 07:24:28;;;;;;;11.30;8.35;;;22.30;99.90;;;;;;5052786;28;20063;-80
2022/06/29 07:26:54;;;;;;;9.77;8.18;;;22.30;99.90;;;;;;5055468;28;20503;-81
2022/06/29 07:29:19;;;;;;;12.77;8.63;;;22.30;99.90;;;;;;5056435;28;20400;-80
2022/06/29 07:31:45;;;;;;;11.05;7.68;;;22.40;99.90;;;;;;5056248;28;20049;-81
2022/06/29 07:34:10;;;;;;;13.43;7.20;;;22.60;99.90;;;;;;5056191;28;20041;-81
2022/06/29 07:36:36;;;;;;;9.80;7.32;;;22.60;99.90;;;;;;5056301;28;20037;-81
2022/06/29 07:39:02;;;;;;;11.57;7.95;;;22.70;99.90;;;;;;5056492;28;20044;-81
2022/06/29 07:41:28;;;;;;;9.05;7.47;;;22.90;99.90;;;;;;5056389;28;20049;-81
2022/06/29 07:43:53;;;;;;;9.95;7.22;;;22.90;99.90;;;;;;5056151;28;20041;-81
2022/06/29 07:46:20;;;;;;;12.20;7.20;;;23.00;99.90;;;;;;5056326;28;20037;-81
2022/06/29 07:48:46;;;;;;;11.93;6.78;;;23.00;99.90;;;;;;5056265;28;20084;-81
2022/06/29 07:51:11;;;;;;;8.35;7.00;;;23.10;99.90;;;;;;5055876;28;20133;-80
2022/06/29 07:53:37;;;;;;;9.32;6.22;;;23.30;99.90;;;;;;5056165;28;20045;-80
2022/06/29 07:56:03;;;;;;;9.82;6.25;;;23.40;99.90;;;;;;5055833;28;20087;-81
2022/06/29 07:58:28;;;;;;;10.90;6.60;;;23.60;99.90;;;;;;5056124;28;20033;-80
2022/06/29 08:00:54;;;;;;;9.13;6.40;;;23.70;99.90;;;;;;5055739;28;20064;-81
2022/06/29 08:03:19;;;;;;;7.70;6.30;;;23.70;99.90;;;;;;5055673;28;20092;-80
2022/06/29 08:05:45;;;;;;;9.18;5.80;;;23.80;99.90;;;;;;5055868;28;20072;-80
2022/06/29 08:08:12;;;;;;;9.27;6.32;;;23.90;99.90;;;;;;5055797;28;20114;-79
2022/06/29 08:10:37;;;;;;;12.68;6.43;;;23.90;99.90;;;;;;5055453;28;20381;-83
2022/06/29 08:13:03;;;;;;;10.27;5.85;;;23.90;99.90;;;;;;5055330;28;20090;-81
2022/06/29 08:15:29;;;;;;;8.10;6.20;;;24.10;99.90;;;;;;5065774;28;20403;-81
2022/06/29 08:17:54;;;;;;;9.95;5.55;;;24.10;99.90;;;;;;5055397;28;20492;-81
2022/06/29 08:20:21;;;;;;;14.00;5.78;;;24.50;99.90;;;;;;5055670;28;20127;-81
2022/06/29 08:22:47;;;;;;;9.57;4.97;;;24.50;99.90;;;;;;5055601;28;20033;-81
2022/06/29 08:25:13;;;;;;;9.15;5.50;;;24.60;99.90;;;;;;5055188;28;20480;-81
2022/06/29 08:27:40;;;;;;;8.93;5.00;;;24.70;99.90;;;;;;5055161;28;20051;-80
2022/06/29 08:30:07;;;;;;;8.82;4.60;;;24.90;99.90;;;;;;5066098;28;20059;-80
2022/06/29 08:32:33;;;;;;;8.88;4.32;;;24.80;99.90;;;;;;5075280;28;20044;-79
2022/06/29 08:35:01;;;;;;;6.60;4.13;;;25.00;99.90;;;;;;5075215;28;20442;-80
2022/06/29 08:37:27;;;;;;;7.82;4.50;;;25.00;99.90;;;;;;5074535;28;20043;-80
2022/06/29 08:39:53;;;;;;;5.70;4.00;;;25.20;99.90;;;;;;5075331;28;20041;-80
2022/06/29 08:42:23;;;;;;;7.30;4.10;;;25.10;99.90;;;;;;5075216;28;20106;-80
2022/06/29 08:44:50;;;;;;;6.10;3.83;;;25.10;99.90;;;;;;5068598;28;20051;-81
2022/06/29 08:47:15;;;;;;;9.95;4.15;;;25.30;99.90;;;;;;5058208;28;20044;-81
2022/06/29 08:49:44;;;;;;;10.55;3.92;;;25.30;99.90;;;;;;5053934;28;20106;-81
2022/06/29 08:52:11;;;;;;;7.78;4.20;;;25.40;99.90;;;;;;5054805;28;20048;-81
2022/06/29 08:54:46;;;;;;;7.43;4.18;;;25.60;99.90;;;;;;5066734;28;20052;-81
2022/06/29 08:57:12;;;;;;;6.68;3.90;;;25.70;99.90;;;;;;5073601;28;20044;-81
2022/06/29 08:59:38;;;;;;;8.43;3.95;;;25.80;99.90;;;;;;5074269;28;20048;-81
2022/06/29 09:02:04;;;;;;;6.63;4.15;;;25.80;99.90;;;;;;5074888;28;20044;-81
2022/06/29 09:04:30;;;;;;;8.73;4.07;;;26.00;99.90;;;;;;5074745;28;20195;-81
2022/06/29 09:06:57;;;;;;;8.43;3.92;;;26.10;99.90;;;;;;5074776;28;20036;-82
2022/06/29 09:09:23;;;;;;;5.65;3.40;;;26.30;99.90;;;;;;5072330;28;20063;-81
2022/06/29 09:11:51;;;;;;;8.88;3.63;;;26.30;99.90;;;;;;5073832;28;20040;-81
2022/06/29 09:14:22;;;;;;;9.40;3.70;;;26.20;99.90;;;;;;5065535;28;20103;-81
2022/06/29 09:16:55;;;;;;;6.10;3.47;;;26.40;99.90;;;;;;5062057;28;20123;-81
2022/06/29 09:19:45;;;;;;;7.47;3.70;;;26.60;99.90;;;;;;5054394;28;20064;-81
2022/06/29 09:22:11;;;;;;;5.43;3.83;;;26.50;99.90;;;;;;5052595;28;20060;-82
2022/06/29 09:24:37;;;;;;;12.15;4.10;;;26.40;98.40;;;;;;5059328;28;20045;-81
2022/06/29 09:27:08;;;;;;;8.55;3.90;;;26.60;99.90;;;;;;5062622;28;20037;-82
2022/06/29 09:29:39;;;;;;;6.28;3.60;;;26.60;99.80;;;;;;5052807;28;20052;-80
2022/06/29 09:32:05;;;;;;;7.88;3.63;;;26.90;99.90;;;;;;5054066;28;20060;-81
2022/06/29 09:34:45;;;;;;;5.63;3.53;;;26.80;99.90;;;;;;5054087;28;20055;-80
2022/06/29 09:37:22;;;;;;;7.07;4.13;;;26.70;99.90;;;;;;5054033;28;20059;-82
2022/06/29 09:39:52;;;;;;;6.95;4.60;;;26.80;99.40;;;;;;5054115;28;20122;-81
2022/06/29 09:42:24;;;;;;;9.88;4.15;;;26.50;98.80;;;;;;5054174;28;20032;-82
2022/06/29 09:44:50;;;;;;;7.18;4.00;;;26.30;99.90;;;;;;5058871;28;20388;-80
2022/06/29 09:47:19;;;;;;;5.63;4.00;;;26.20;99.90;;;;;;5057661;28;20053;-81
2022/06/29 09:49:47;;;;;;;7.85;4.57;;;26.10;99.90;;;;;;5052895;28;20051;-81
2022/06/29 09:52:15;;;;;;;5.72;4.10;;;26.00;99.90;;;;;;5053938;28;20083;-80
2022/06/29 09:54:56;;;;;;;7.70;4.03;;;26.10;99.90;;;;;;5058718;28;20041;-80
2022/06/29 09:57:27;;;;;;;12.25;4.55;;;26.30;99.90;;;;;;5073101;28;20040;-80
2022/06/29 10:03:11;;;;;;;6.50;4.45;;;26.40;99.90;;;;;;5051401;28;20442;-81
2022/06/29 10:05:54;;;;;;;6.70;4.30;;;26.30;99.90;;;;;;5068829;28;20045;-82
2022/06/29 10:08:20;;;;;;;8.70;4.25;;;26.30;99.90;;;;;;5071674;28;20048;-81
2022/06/29 10:10:57;;;;;;;8.30;4.30;;;26.30;99.90;;;;;;5071604;28;20048;-81
2022/06/29 10:13:39;;;;;;;7.88;4.22;;;26.50;99.90;;;;;;5073738;28;20052;-81
2022/06/29 10:16:27;;;;;;;7.53;4.33;;;26.60;99.90;;;;;;5064611;28;20041;-81
2022/06/29 10:19:01;;;;;;;8.77;4.30;;;26.60;99.60;;;;;;5053299;28;20474;-81
2022/06/29 10:21:29;;;;;;;7.32;4.32;;;26.70;99.90;;;;;;5053236;28;20549;-81
2022/06/29 10:23:57;;;;;;;8.88;4.57;;;26.80;99.90;;;;;;5051350;28;20048;-81
2022/06/29 10:26:39;;;;;;;5.18;4.28;;;26.70;99.90;;;;;;5051511;28;20090;-81
2022/06/29 10:29:08;;;;;;;6.28;4.38;;;27.10;99.90;;;;;;5050948;28;20047;-82
2022/06/29 10:31:52;;;;;;;8.00;4.25;;;27.30;99.90;;;;;;5052821;28;20484;-78
2022/06/29 10:34:32;;;;;;;7.00;4.30;;;27.30;99.90;;;;;;5053408;28;20048;-79
2022/06/29 10:37:05;;;;;;;6.32;4.18;;;27.40;99.30;;;;;;5053272;28;20051;-82
2022/06/29 10:39:46;;;;;;;6.75;4.45;;;27.40;99.50;;;;;;5053359;28;20072;-82
2022/06/29 10:45:16;;;;;;;6.40;4.75;;;27.70;99.90;;;;;;5053138;28;20107;-81
2022/06/29 10:47:54;;;;;;;7.40;4.40;;;27.70;99.90;;;;;;5053220;28;20045;-82
2022/06/29 10:50:21;;;;;;;5.68;3.85;;;27.90;99.50;;;;;;5053292;28;20073;-81
2022/06/29 10:52:48;;;;;;;5.53;3.95;;;28.00;99.90;;;;;;5052640;28;20052;-82
2022/06/29 10:55:15;;;;;;;9.85;4.45;;;28.10;99.20;;;;;;5053300;28;20119;-81
2022/06/29 10:57:44;;;;;;;6.03;4.20;;;28.00;95.40;;;;;;5052906;28;20040;-81
2022/06/29 11:00:34;;;;;;;5.22;3.55;;;28.10;98.20;;;;;;5054156;28;20407;-80
2022/06/29 11:03:11;;;;;;;8.35;3.80;;;28.10;95.30;;;;;;5057107;28;20116;-82
2022/06/29 11:12:01;;;;;;;6.07;3.63;;;28.00;91.90;;;;;;5056945;28;20560;-81
2022/06/29 11:13:57;;;;;;;6.13;3.78;;;27.80;94.50;;;;;;5056723;28;20131;-80
2022/06/29 11:16:34;;;;;;;5.68;3.63;;;28.00;96.90;;;;;;5056962;28;20037;-88
2022/06/29 11:19:00;;;;;;;6.15;3.65;;;28.20;96.50;;;;;;5055520;28;20127;-88
2022/06/29 11:21:29;;;;;;;8.77;3.58;;;28.60;99.40;;;;;;5055287;28;20425;-83
2022/06/29 11:23:57;;;;;;;5.20;3.50;;;28.70;97.50;;;;;;5058763;28;20405;-82
2022/06/29 11:26:25;;;;;;;5.80;3.53;;;28.50;87.70;;;;;;5064197;28;20049;-84
2022/06/29 11:28:51;;;;;;;5.90;3.25;;;28.60;90.50;;;;;;5056458;28;20055;-83
2022/06/29 11:31:17;;;;;;;7.82;3.38;;;28.70;85.00;;;;;;5056610;28;20048;-83
2022/06/29 11:33:45;;;;;;;5.82;3.20;;;28.60;73.60;;;;;;5056501;28;20049;-83
2022/06/29 11:36:19;;;;;;;5.07;3.20;;;28.60;88.70;;;;;;5056219;28;20037;-83
2022/06/29 11:38:50;;;;;;;4.78;2.70;;;28.40;77.30;;;;;;5056254;28;20053;-83
2022/06/29 11:43:03;;;;;;;5.20;3.08;;;28.60;85.80;;;;;;5056496;28;20040;-83
2022/06/29 11:44:28;;;;;;;5.57;3.10;;;28.40;80.20;;;;;;5055979;28;20049;-82
2022/06/29 11:46:55;;;;;;;4.85;3.05;;;28.40;83.80;;;;;;5056389;28;20049;-82
2022/06/29 11:52:08;;;;;;;5.40;3.22;;;28.60;86.30;;;;;;5056115;28;20055;-84
2022/06/29 11:54:36;;;;;;;6.38;3.25;;;28.70;85.50;;;;;;5060253;28;20458;-83
2022/06/29 11:57:15;;;;;;;5.60;2.92;;;28.70;82.80;;;;;;5060258;28;20186;-84
2022/06/29 11:59:44;;;;;;;10.30;3.75;;;28.70;75.60;;;;;;5056175;28;20502;-82
2022/06/29 12:02:11;;;;;;;6.07;2.83;;;28.80;82.60;;;;;;5056178;28;20163;-87
2022/06/29 12:04:37;;;;;;;4.18;3.08;;;28.80;85.50;;;;;;5054522;28;20048;-83
2022/06/29 12:07:05;;;;;;;12.68;4.15;;;29.00;83.10;;;;;;5055419;28;20051;-83
2022/06/29 12:09:32;;;;;;;7.68;3.58;;;29.00;82.10;;;;;;5055773;28;20049;-83
2022/06/29 12:11:58;;;;;;;3.80;2.88;;;28.80;75.50;;;;;;5054646;28;20048;-82
2022/06/29 12:14:24;;;;;;;4.47;2.72;;;29.00;77.10;;;;;;5055675;28;20384;-82
2022/06/29 12:16:49;;;;;;;4.53;2.83;;;28.90;72.50;;;;;;5055795;28;20102;-83
2022/06/29 12:19:15;;;;;;;5.97;2.88;;;28.90;74.70;;;;;;5055687;28;20385;-83
2022/06/29 12:21:41;;;;;;;4.90;2.95;;;28.80;73.40;;;;;;5055834;28;20049;-82
2022/06/29 12:24:06;;;;;;;5.45;3.17;;;29.00;80.20;;;;;;5055624;28;20099;-82
2022/06/29 12:26:32;;;;;;;4.38;3.00;;;29.00;82.80;;;;;;5055747;28;20125;-82
2022/06/29 12:28:58;;;;;;;4.15;2.70;;;29.00;79.40;;;;;;5055729;28;20041;-83
2022/06/29 12:31:23;;;;;;;4.75;2.80;;;29.00;80.30;;;;;;5055381;28;20045;-82
2022/06/29 12:33:49;;;;;;;5.82;2.85;;;29.10;81.80;;;;;;5054900;28;20040;-82
2022/06/29 12:36:15;;;;;;;5.93;2.55;;;29.00;71.70;;;;;;5055246;28;20039;-82
2022/06/29 12:38:41;;;;;;;4.35;2.70;;;29.00;71.80;;;;;;5055236;28;20465;-83
2022/06/29 12:41:07;;;;;;;4.30;2.50;;;28.80;71.80;;;;;;5055163;28;20037;-82
2022/06/29 12:43:32;;;;;;;5.03;2.60;;;28.90;78.40;;;;;;5055162;28;20182;-83
2022/06/29 12:45:59;;;;;;;4.45;2.25;;;29.10;76.10;;;;;;5055339;28;20127;-83
2022/06/29 12:48:25;;;;;;;6.28;2.60;;;29.10;66.60;;;;;;5055289;28;20121;-83
2022/06/29 12:50:51;;;;;;;6.60;3.05;;;29.00;73.50;;;;;;5053987;28;20123;-82
2022/06/29 12:53:16;;;;;;;10.43;3.35;;;28.90;75.10;;;;;;5054918;28;20500;-82
2022/06/29 12:55:42;;;;;;;6.57;2.65;;;29.00;74.60;;;;;;5055066;28;20180;-82
2022/06/29 12:58:08;;;;;;;4.53;2.47;;;29.00;76.30;;;;;;5055115;28;20041;-83
2022/06/29 13:00:34;;;;;;;3.50;2.50;;;29.00;67.30;;;;;;5054777;28;20526;-82